sensor_id;sensor_type;location;lat;lon;timestamp;temperature;humidity
61412;DHT22;47278;49.732;7.690;2023-12-20T00:01:32;5.10;99.90
61412;DHT22;47278;49.732;7.690;2023-12-20T00:03:59;5.00;99.90
61412;DHT22;47278;49.732;7.690;2023-12-20T00:06:24;5.10;99.90
61412;DHT22;47278;49.732;7.690;2023-12-20T00:08:51;5.10;99.90
61412;DHT22;47278;49.732;7.690;2023-12-20T00:11:17;5.30;99.90
61412;DHT22;47278;49.732;7.690;2023-12-20T00:13:42;5.10;99.90
61412;DHT22;47278;49.732;7.690;2023-12-20T00:16:09;5.30;99.90
61412;DHT22;47278;49.732;7.690;2023-12-20T00:18:35;5.00;99.90
61412;DHT22;47278;49.732;7.690;2023-12-20T00:21:00;5.10;99.90
61412;DHT22;47278;49.732;7.690;2023-12-20T00:23:27;5.20;99.90
61412;DHT22;47278;49.732;7.690;2023-12-20T00:25:53;5.10;99.90
61412;DHT22;47278;49.732;7.690;2023-12-20T00:28:18;5.10;99.90
61412;DHT22;47278;49.732;7.690;2023-12-20T00:30:45;5.10;99.90
61412;DHT22;47278;49.732;7.690;2023-12-20T00:33:11;5.10;99.90
61412;DHT22;47278;49.732;7.690;2023-12-20T00:35:37;5.10;99.90
61412;DHT22;47278;49.732;7.690;2023-12-20T00:38:03;5.20;99.90
61412;DHT22;47278;49.732;7.690;2023-12-20T00:40:30;5.10;99.90
61412;DHT22;47278;49.732;7.690;2023-12-20T00:42:56;5.00;99.90
61412;DHT22;47278;49.732;7.690;2023-12-20T00:45:23;5.10;99.90
61412;DHT22;47278;49.732;7.690;2023-12-20T00:47:49;5.10;99.90
61412;DHT22;47278;49.732;7.690;2023-12-20T00:50:15;5.10;99.90
61412;DHT22;47278;49.732;7.690;2023-12-20T00:52:41;5.10;99.90
61412;DHT22;47278;49.732;7.690;2023-12-20T00:55:07;5.20;99.90
61412;DHT22;47278;49.732;7.690;2023-12-20T00:57:33;5.10;99.90
61412;DHT22;47278;49.732;7.690;2023-12-20T00:59:58;5.20;99.90
61412;DHT22;47278;49.732;7.690;2023-12-20T01:02:25;5.10;99.90
61412;DHT22;47278;49.732;7.690;2023-12-20T01:04:51;5.40;99.90
61412;DHT22;47278;49.732;7.690;2023-12-20T01:07:17;5.10;99.90
61412;DHT22;47278;49.732;7.690;2023-12-20T01:09:43;5.20;99.90
61412;DHT22;47278;49.732;7.690;2023-12-20T01:12:09;5.20;99.90
61412;DHT22;47278;49.732;7.690;2023-12-20T01:14:35;5.10;99.90
61412;DHT22;47278;49.732;7.690;2023-12-20T01:17:01;5.30;99.90
61412;DHT22;47278;49.732;7.690;2023-12-20T01:19:27;5.10;99.90
61412;DHT22;47278;49.732;7.690;2023-12-20T01:21:53;5.30;99.90
61412;DHT22;47278;49.732;7.690;2023-12-20T01:24:20;5.10;99.90
61412;DHT22;47278;49.732;7.690;2023-12-20T01:26:47;5.10;99.90
61412;DHT22;47278;49.732;7.690;2023-12-20T01:29:13;5.50;99.90
61412;DHT22;47278;49.732;7.690;2023-12-20T01:31:39;5.10;99.90
61412;DHT22;47278;49.732;7.690;2023-12-20T01:34:06;5.10;99.90
61412;DHT22;47278;49.732;7.690;2023-12-20T01:36:33;5.20;99.90
61412;DHT22;47278;49.732;7.690;2023-12-20T01:38:59;5.20;99.90
61412;DHT22;47278;49.732;7.690;2023-12-20T01:41:25;5.10;99.90
61412;DHT22;47278;49.732;7.690;2023-12-20T01:43:51;5.40;99.90
61412;DHT22;47278;49.732;7.690;2023-12-20T01:46:18;5.20;99.90
61412;DHT22;47278;49.732;7.690;2023-12-20T01:48:45;5.50;99.90
61412;DHT22;47278;49.732;7.690;2023-12-20T01:51:11;5.40;99.90
61412;DHT22;47278;49.732;7.690;2023-12-20T01:53:37;5.20;99.90
61412;DHT22;47278;49.732;7.690;2023-12-20T01:56:03;5.30;99.90
61412;DHT22;47278;49.732;7.690;2023-12-20T01:58:29;5.20;99.90
61412;DHT22;47278;49.732;7.690;2023-12-20T02:00:56;5.20;99.90
61412;DHT22;47278;49.732;7.690;2023-12-20T02:03:22;5.20;99.90
61412;DHT22;47278;49.732;7.690;2023-12-20T02:05:49;5.20;99.90
61412;DHT22;47278;49.732;7.690;2023-12-20T02:08:16;5.20;99.90
61412;DHT22;47278;49.732;7.690;2023-12-20T02:10:42;5.30;99.90
61412;DHT22;47278;49.732;7.690;2023-12-20T02:13:09;5.40;99.90
61412;DHT22;47278;49.732;7.690;2023-12-20T02:15:35;5.40;99.90
61412;DHT22;47278;49.732;7.690;2023-12-20T02:18:02;5.20;99.90
61412;DHT22;47278;49.732;7.690;2023-12-20T02:20:29;5.20;99.90
61412;DHT22;47278;49.732;7.690;2023-12-20T02:22:55;5.30;99.90
61412;DHT22;47278;49.732;7.690;2023-12-20T02:25:21;5.40;99.90
61412;DHT22;47278;49.732;7.690;2023-12-20T02:27:47;5.30;99.90
61412;DHT22;47278;49.732;7.690;2023-12-20T02:30:15;5.30;99.90
61412;DHT22;47278;49.732;7.690;2023-12-20T02:32:41;5.30;99.90
61412;DHT22;47278;49.732;7.690;2023-12-20T02:35:07;5.30;99.90
61412;DHT22;47278;49.732;7.690;2023-12-20T02:37:33;5.30;99.90
61412;DHT22;47278;49.732;7.690;2023-12-20T02:39:59;5.30;99.90
61412;DHT22;47278;49.732;7.690;2023-12-20T02:42:25;5.30;99.90
61412;DHT22;47278;49.732;7.690;2023-12-20T02:44:51;5.30;99.90
61412;DHT22;47278;49.732;7.690;2023-12-20T02:47:17;5.30;99.90
61412;DHT22;47278;49.732;7.690;2023-12-20T02:49:42;5.60;99.90
61412;DHT22;47278;49.732;7.690;2023-12-20T02:52:09;5.30;99.90
61412;DHT22;47278;49.732;7.690;2023-12-20T02:54:35;5.30;99.90
61412;DHT22;47278;49.732;7.690;2023-12-20T02:57:00;5.60;99.90
61412;DHT22;47278;49.732;7.690;2023-12-20T02:59:27;5.40;99.90
61412;DHT22;47278;49.732;7.690;2023-12-20T03:01:53;5.30;99.90
61412;DHT22;47278;49.732;7.690;2023-12-20T03:04:18;5.30;99.90
61412;DHT22;47278;49.732;7.690;2023-12-20T03:06:45;5.30;99.90
61412;DHT22;47278;49.732;7.690;2023-12-20T03:09:11;5.50;99.90
61412;DHT22;47278;49.732;7.690;2023-12-20T03:11:37;5.30;99.90
61412;DHT22;47278;49.732;7.690;2023-12-20T03:14:02;5.40;99.90
61412;DHT22;47278;49.732;7.690;2023-12-20T03:16:29;5.50;99.90
61412;DHT22;47278;49.732;7.690;2023-12-20T03:18:56;5.30;99.90
61412;DHT22;47278;49.732;7.690;2023-12-20T03:21:22;5.40;99.90
61412;DHT22;47278;49.732;7.690;2023-12-20T03:23:49;5.50;99.90
61412;DHT22;47278;49.732;7.690;2023-12-20T03:26:15;5.50;99.90
61412;DHT22;47278;49.732;7.690;2023-12-20T03:28:41;5.50;99.90
61412;DHT22;47278;49.732;7.690;2023-12-20T03:31:07;5.50;99.90
61412;DHT22;47278;49.732;7.690;2023-12-20T03:33:32;5.50;99.90
61412;DHT22;47278;49.732;7.690;2023-12-20T03:35:59;5.60;99.90
61412;DHT22;47278;49.732;7.690;2023-12-20T03:38:25;5.50;99.90
61412;DHT22;47278;49.732;7.690;2023-12-20T03:40:50;5.50;99.90
61412;DHT22;47278;49.732;7.690;2023-12-20T03:43:16;5.50;99.90
61412;DHT22;47278;49.732;7.690;2023-12-20T03:45:43;5.50;99.90
61412;DHT22;47278;49.732;7.690;2023-12-20T03:48:09;5.40;99.90
61412;DHT22;47278;49.732;7.690;2023-12-20T03:50:35;5.40;99.90
61412;DHT22;47278;49.732;7.690;2023-12-20T03:53:00;5.50;99.90
61412;DHT22;47278;49.732;7.690;2023-12-20T03:55:27;5.60;99.90
61412;DHT22;47278;49.732;7.690;2023-12-20T03:57:53;5.40;99.90
61412;DHT22;47278;49.732;7.690;2023-12-20T04:00:19;5.50;99.90
61412;DHT22;47278;49.732;7.690;2023-12-20T04:02:45;5.50;99.90
61412;DHT22;47278;49.732;7.690;2023-12-20T04:05:11;5.50;99.90
61412;DHT22;47278;49.732;7.690;2023-12-20T04:07:37;5.50;99.90
61412;DHT22;47278;49.732;7.690;2023-12-20T04:10:03;5.40;99.90
61412;DHT22;47278;49.732;7.690;2023-12-20T04:12:32;5.30;99.90
61412;DHT22;47278;49.732;7.690;2023-12-20T04:14:59;5.60;99.90
61412;DHT22;47278;49.732;7.690;2023-12-20T04:17:25;5.40;99.90
61412;DHT22;47278;49.732;7.690;2023-12-20T04:19:51;5.50;99.90
61412;DHT22;47278;49.732;7.690;2023-12-20T04:22:20;5.50;99.90
61412;DHT22;47278;49.732;7.690;2023-12-20T04:24:47;5.50;99.90
61412;DHT22;47278;49.732;7.690;2023-12-20T04:27:12;5.60;99.90
61412;DHT22;47278;49.732;7.690;2023-12-20T04:29:39;5.60;99.90
61412;DHT22;47278;49.732;7.690;2023-12-20T04:32:05;5.60;99.90
61412;DHT22;47278;49.732;7.690;2023-12-20T04:34:31;5.60;99.90
61412;DHT22;47278;49.732;7.690;2023-12-20T04:36:57;5.60;99.90
61412;DHT22;47278;49.732;7.690;2023-12-20T04:39:23;5.70;99.90
61412;DHT22;47278;49.732;7.690;2023-12-20T04:41:48;6.00;99.90
61412;DHT22;47278;49.732;7.690;2023-12-20T04:44:15;6.20;99.90
61412;DHT22;47278;49.732;7.690;2023-12-20T04:46:41;6.60;99.90
61412;DHT22;47278;49.732;7.690;2023-12-20T04:49:07;6.70;99.90
61412;DHT22;47278;49.732;7.690;2023-12-20T04:51:33;6.70;99.90
61412;DHT22;47278;49.732;7.690;2023-12-20T04:53:59;6.60;99.90
61412;DHT22;47278;49.732;7.690;2023-12-20T04:56:25;6.70;99.90
61412;DHT22;47278;49.732;7.690;2023-12-20T04:58:50;6.60;99.90
61412;DHT22;47278;49.732;7.690;2023-12-20T05:01:17;6.50;99.90
61412;DHT22;47278;49.732;7.690;2023-12-20T05:03:43;6.40;99.90
61412;DHT22;47278;49.732;7.690;2023-12-20T05:06:09;6.50;99.90
61412;DHT22;47278;49.732;7.690;2023-12-20T05:08:35;6.30;99.90
61412;DHT22;47278;49.732;7.690;2023-12-20T05:11:01;6.30;99.90
61412;DHT22;47278;49.732;7.690;2023-12-20T05:13:27;6.20;99.90
61412;DHT22;47278;49.732;7.690;2023-12-20T05:15:53;6.10;99.90
61412;DHT22;47278;49.732;7.690;2023-12-20T05:18:20;5.90;99.90
61412;DHT22;47278;49.732;7.690;2023-12-20T05:20:47;5.70;99.90
61412;DHT22;47278;49.732;7.690;2023-12-20T05:23:13;5.10;99.90
61412;DHT22;47278;49.732;7.690;2023-12-20T05:25:39;5.30;99.90
61412;DHT22;47278;49.732;7.690;2023-12-20T05:28:05;5.30;99.90
61412;DHT22;47278;49.732;7.690;2023-12-20T05:30:31;5.40;99.90
61412;DHT22;47278;49.732;7.690;2023-12-20T05:32:57;5.50;99.90
61412;DHT22;47278;49.732;7.690;2023-12-20T05:35:22;5.40;99.90
61412;DHT22;47278;49.732;7.690;2023-12-20T05:37:49;5.30;99.90
61412;DHT22;47278;49.732;7.690;2023-12-20T05:40:15;5.30;99.90
61412;DHT22;47278;49.732;7.690;2023-12-20T05:42:41;5.20;99.90
61412;DHT22;47278;49.732;7.690;2023-12-20T05:45:08;5.20;99.90
61412;DHT22;47278;49.732;7.690;2023-12-20T05:47:35;5.10;99.90
61412;DHT22;47278;49.732;7.690;2023-12-20T05:50:00;5.10;99.90
61412;DHT22;47278;49.732;7.690;2023-12-20T05:52:27;5.30;99.90
61412;DHT22;47278;49.732;7.690;2023-12-20T05:54:52;5.30;99.90
61412;DHT22;47278;49.732;7.690;2023-12-20T05:57:19;5.20;99.90
61412;DHT22;47278;49.732;7.690;2023-12-20T05:59:45;5.10;99.90
61412;DHT22;47278;49.732;7.690;2023-12-20T06:02:11;5.10;99.90
61412;DHT22;47278;49.732;7.690;2023-12-20T06:04:37;4.90;99.90
61412;DHT22;47278;49.732;7.690;2023-12-20T06:07:07;4.90;99.90
61412;DHT22;47278;49.732;7.690;2023-12-20T06:09:32;4.90;99.90
61412;DHT22;47278;49.732;7.690;2023-12-20T06:11:58;5.10;99.90
61412;DHT22;47278;49.732;7.690;2023-12-20T06:14:25;4.70;99.90
61412;DHT22;47278;49.732;7.690;2023-12-20T06:16:51;4.70;99.90
61412;DHT22;47278;49.732;7.690;2023-12-20T06:19:17;4.50;99.90
61412;DHT22;47278;49.732;7.690;2023-12-20T06:21:43;4.20;99.90
61412;DHT22;47278;49.732;7.690;2023-12-20T06:24:08;4.10;99.90
61412;DHT22;47278;49.732;7.690;2023-12-20T06:26:34;3.80;99.90
61412;DHT22;47278;49.732;7.690;2023-12-20T06:29:00;3.70;99.90
61412;DHT22;47278;49.732;7.690;2023-12-20T06:31:27;3.50;99.90
61412;DHT22;47278;49.732;7.690;2023-12-20T06:33:52;4.60;99.90
61412;DHT22;47278;49.732;7.690;2023-12-20T06:36:23;4.30;99.90
61412;DHT22;47278;49.732;7.690;2023-12-20T06:38:48;3.50;99.90
61412;DHT22;47278;49.732;7.690;2023-12-20T06:41:15;3.50;99.90
61412;DHT22;47278;49.732;7.690;2023-12-20T06:43:41;3.50;99.90
61412;DHT22;47278;49.732;7.690;2023-12-20T06:46:07;3.50;99.90
61412;DHT22;47278;49.732;7.690;2023-12-20T06:48:34;4.50;99.90
61412;DHT22;47278;49.732;7.690;2023-12-20T06:51:01;3.80;99.90
61412;DHT22;47278;49.732;7.690;2023-12-20T06:53:30;3.80;99.90
61412;DHT22;47278;49.732;7.690;2023-12-20T06:55:57;4.00;99.90
61412;DHT22;47278;49.732;7.690;2023-12-20T06:58:23;3.60;99.90
61412;DHT22;47278;49.732;7.690;2023-12-20T07:00:48;4.20;99.90
61412;DHT22;47278;49.732;7.690;2023-12-20T07:03:15;4.20;99.90
61412;DHT22;47278;49.732;7.690;2023-12-20T07:05:41;4.30;99.90
61412;DHT22;47278;49.732;7.690;2023-12-20T07:08:07;3.80;99.90
61412;DHT22;47278;49.732;7.690;2023-12-20T07:10:33;3.80;99.90
61412;DHT22;47278;49.732;7.690;2023-12-20T07:12:59;3.30;99.90
61412;DHT22;47278;49.732;7.690;2023-12-20T07:15:25;3.40;99.90
61412;DHT22;47278;49.732;7.690;2023-12-20T07:17:52;4.30;99.90
61412;DHT22;47278;49.732;7.690;2023-12-20T07:20:19;3.50;99.90
61412;DHT22;47278;49.732;7.690;2023-12-20T07:22:45;4.70;99.90
61412;DHT22;47278;49.732;7.690;2023-12-20T07:25:11;3.60;99.90
61412;DHT22;47278;49.732;7.690;2023-12-20T07:27:37;3.80;99.90
61412;DHT22;47278;49.732;7.690;2023-12-20T07:30:03;4.20;99.90
61412;DHT22;47278;49.732;7.690;2023-12-20T07:32:29;4.10;99.90
61412;DHT22;47278;49.732;7.690;2023-12-20T07:34:55;4.00;99.90
61412;DHT22;47278;49.732;7.690;2023-12-20T07:37:21;4.10;99.90
61412;DHT22;47278;49.732;7.690;2023-12-20T07:39:47;4.10;99.90
61412;DHT22;47278;49.732;7.690;2023-12-20T07:42:13;4.00;99.90
61412;DHT22;47278;49.732;7.690;2023-12-20T07:44:39;4.00;99.90
61412;DHT22;47278;49.732;7.690;2023-12-20T07:47:05;3.80;99.90
61412;DHT22;47278;49.732;7.690;2023-12-20T07:49:31;3.90;99.90
61412;DHT22;47278;49.732;7.690;2023-12-20T07:51:57;3.90;99.90
61412;DHT22;47278;49.732;7.690;2023-12-20T07:54:23;3.80;99.90
61412;DHT22;47278;49.732;7.690;2023-12-20T07:56:49;4.10;99.90
61412;DHT22;47278;49.732;7.690;2023-12-20T07:59:15;4.20;99.90
61412;DHT22;47278;49.732;7.690;2023-12-20T08:01:41;4.20;99.90
61412;DHT22;47278;49.732;7.690;2023-12-20T08:04:08;4.40;99.90
61412;DHT22;47278;49.732;7.690;2023-12-20T08:06:35;4.40;99.90
61412;DHT22;47278;49.732;7.690;2023-12-20T08:09:01;4.10;99.90
61412;DHT22;47278;49.732;7.690;2023-12-20T08:11:27;3.70;99.90
61412;DHT22;47278;49.732;7.690;2023-12-20T08:13:52;3.90;99.90
61412;DHT22;47278;49.732;7.690;2023-12-20T08:16:19;3.50;99.90
61412;DHT22;47278;49.732;7.690;2023-12-20T08:18:45;3.60;99.90
61412;DHT22;47278;49.732;7.690;2023-12-20T08:21:11;3.60;99.90
61412;DHT22;47278;49.732;7.690;2023-12-20T08:23:37;3.60;99.90
61412;DHT22;47278;49.732;7.690;2023-12-20T08:26:06;3.70;99.90
61412;DHT22;47278;49.732;7.690;2023-12-20T08:28:33;4.00;99.90
61412;DHT22;47278;49.732;7.690;2023-12-20T08:30:59;4.50;99.90
61412;DHT22;47278;49.732;7.690;2023-12-20T08:33:25;4.60;99.90
61412;DHT22;47278;49.732;7.690;2023-12-20T08:35:51;4.80;99.90
61412;DHT22;47278;49.732;7.690;2023-12-20T08:38:17;4.90;99.90
61412;DHT22;47278;49.732;7.690;2023-12-20T08:40:43;5.00;99.90
61412;DHT22;47278;49.732;7.690;2023-12-20T08:43:09;5.40;99.90
61412;DHT22;47278;49.732;7.690;2023-12-20T08:45:35;5.20;99.90
61412;DHT22;47278;49.732;7.690;2023-12-20T08:48:00;5.10;99.90
61412;DHT22;47278;49.732;7.690;2023-12-20T08:50:28;5.40;99.90
61412;DHT22;47278;49.732;7.690;2023-12-20T08:52:55;5.20;99.90
61412;DHT22;47278;49.732;7.690;2023-12-20T08:55:21;5.30;99.90
61412;DHT22;47278;49.732;7.690;2023-12-20T08:57:47;5.30;99.90
61412;DHT22;47278;49.732;7.690;2023-12-20T09:00:13;5.40;99.90
61412;DHT22;47278;49.732;7.690;2023-12-20T09:02:39;5.40;99.90
61412;DHT22;47278;49.732;7.690;2023-12-20T09:05:05;5.40;99.90
61412;DHT22;47278;49.732;7.690;2023-12-20T09:07:31;5.40;99.90
61412;DHT22;47278;49.732;7.690;2023-12-20T09:09:57;5.50;99.90
61412;DHT22;47278;49.732;7.690;2023-12-20T09:12:23;5.50;99.90
61412;DHT22;47278;49.732;7.690;2023-12-20T09:14:49;5.70;99.90
61412;DHT22;47278;49.732;7.690;2023-12-20T09:17:17;5.60;99.90
61412;DHT22;47278;49.732;7.690;2023-12-20T09:19:43;5.60;99.90
61412;DHT22;47278;49.732;7.690;2023-12-20T09:22:09;5.60;99.90
61412;DHT22;47278;49.732;7.690;2023-12-20T09:24:35;5.80;99.90
61412;DHT22;47278;49.732;7.690;2023-12-20T09:27:01;5.60;99.90
61412;DHT22;47278;49.732;7.690;2023-12-20T09:29:27;5.70;99.90
61412;DHT22;47278;49.732;7.690;2023-12-20T09:31:53;5.90;99.90
61412;DHT22;47278;49.732;7.690;2023-12-20T09:34:19;5.90;99.90
61412;DHT22;47278;49.732;7.690;2023-12-20T09:36:45;5.80;99.90
61412;DHT22;47278;49.732;7.690;2023-12-20T09:39:14;5.80;99.90
61412;DHT22;47278;49.732;7.690;2023-12-20T09:41:43;5.90;99.90
61412;DHT22;47278;49.732;7.690;2023-12-20T09:44:12;5.90;99.90
61412;DHT22;47278;49.732;7.690;2023-12-20T09:46:42;6.20;99.90
61412;DHT22;47278;49.732;7.690;2023-12-20T09:49:09;6.00;99.90
61412;DHT22;47278;49.732;7.690;2023-12-20T09:51:35;6.00;99.90
61412;DHT22;47278;49.732;7.690;2023-12-20T09:54:02;6.10;99.90
61412;DHT22;47278;49.732;7.690;2023-12-20T09:56:28;6.10;99.90
61412;DHT22;47278;49.732;7.690;2023-12-20T09:58:55;6.10;99.90
61412;DHT22;47278;49.732;7.690;2023-12-20T10:01:21;6.10;99.90
61412;DHT22;47278;49.732;7.690;2023-12-20T10:03:47;6.20;99.90
61412;DHT22;47278;49.732;7.690;2023-12-20T10:06:13;6.30;99.90
61412;DHT22;47278;49.732;7.690;2023-12-20T10:08:39;6.30;99.90
61412;DHT22;47278;49.732;7.690;2023-12-20T10:11:05;6.40;99.90
61412;DHT22;47278;49.732;7.690;2023-12-20T10:13:31;6.40;99.90
61412;DHT22;47278;49.732;7.690;2023-12-20T10:15:57;6.40;99.90
61412;DHT22;47278;49.732;7.690;2023-12-20T10:18:23;6.40;99.90
61412;DHT22;47278;49.732;7.690;2023-12-20T10:20:49;6.50;99.90
61412;DHT22;47278;49.732;7.690;2023-12-20T10:23:15;6.60;99.90
61412;DHT22;47278;49.732;7.690;2023-12-20T10:25:41;6.60;99.90
61412;DHT22;47278;49.732;7.690;2023-12-20T10:28:10;6.70;99.90
61412;DHT22;47278;49.732;7.690;2023-12-20T10:30:36;6.80;99.90
61412;DHT22;47278;49.732;7.690;2023-12-20T10:33:02;7.00;99.90
61412;DHT22;47278;49.732;7.690;2023-12-20T10:35:29;7.00;99.90
61412;DHT22;47278;49.732;7.690;2023-12-20T10:37:55;7.10;99.90
61412;DHT22;47278;49.732;7.690;2023-12-20T10:40:22;7.20;99.90
61412;DHT22;47278;49.732;7.690;2023-12-20T10:42:48;7.30;99.90
61412;DHT22;47278;49.732;7.690;2023-12-20T10:45:17;7.30;99.90
61412;DHT22;47278;49.732;7.690;2023-12-20T10:47:45;7.30;99.90
61412;DHT22;47278;49.732;7.690;2023-12-20T10:50:11;7.30;99.90
61412;DHT22;47278;49.732;7.690;2023-12-20T10:52:38;7.30;99.90
61412;DHT22;47278;49.732;7.690;2023-12-20T10:55:05;7.30;99.90
61412;DHT22;47278;49.732;7.690;2023-12-20T10:57:30;7.30;99.90
61412;DHT22;47278;49.732;7.690;2023-12-20T10:59:58;7.40;99.90
61412;DHT22;47278;49.732;7.690;2023-12-20T11:02:27;7.50;99.90
61412;DHT22;47278;49.732;7.690;2023-12-20T11:04:55;7.60;99.90
61412;DHT22;47278;49.732;7.690;2023-12-20T11:07:29;7.60;99.90
61412;DHT22;47278;49.732;7.690;2023-12-20T11:10:02;7.60;99.90
61412;DHT22;47278;49.732;7.690;2023-12-20T11:12:35;7.50;99.90
61412;DHT22;47278;49.732;7.690;2023-12-20T11:15:03;7.50;99.90
61412;DHT22;47278;49.732;7.690;2023-12-20T11:17:29;7.60;99.90
61412;DHT22;47278;49.732;7.690;2023-12-20T11:22:21;7.60;99.90
61412;DHT22;47278;49.732;7.690;2023-12-20T11:24:48;7.70;99.90
61412;DHT22;47278;49.732;7.690;2023-12-20T11:27:15;7.70;99.90
61412;DHT22;47278;49.732;7.690;2023-12-20T11:29:41;7.80;99.90
61412;DHT22;47278;49.732;7.690;2023-12-20T11:34:55;7.80;99.90
61412;DHT22;47278;49.732;7.690;2023-12-20T11:37:21;7.80;99.90
61412;DHT22;47278;49.732;7.690;2023-12-20T11:39:56;7.60;99.90
61412;DHT22;47278;49.732;7.690;2023-12-20T11:42:23;7.70;99.90
61412;DHT22;47278;49.732;7.690;2023-12-20T11:44:50;7.60;99.90
61412;DHT22;47278;49.732;7.690;2023-12-20T11:47:15;7.60;99.90
61412;DHT22;47278;49.732;7.690;2023-12-20T11:49:44;7.60;99.90
61412;DHT22;47278;49.732;7.690;2023-12-20T11:52:11;7.50;99.90
61412;DHT22;47278;49.732;7.690;2023-12-20T11:54:37;7.50;99.90
61412;DHT22;47278;49.732;7.690;2023-12-20T11:57:03;7.40;99.90
61412;DHT22;47278;49.732;7.690;2023-12-20T11:59:29;7.40;99.90
61412;DHT22;47278;49.732;7.690;2023-12-20T12:01:58;7.50;99.90
61412;DHT22;47278;49.732;7.690;2023-12-20T12:04:26;7.50;99.90
61412;DHT22;47278;49.732;7.690;2023-12-20T12:06:53;7.60;99.90
61412;DHT22;47278;49.732;7.690;2023-12-20T12:09:19;7.80;99.90
61412;DHT22;47278;49.732;7.690;2023-12-20T12:11:45;8.00;99.90
61412;DHT22;47278;49.732;7.690;2023-12-20T12:14:11;8.40;99.90
61412;DHT22;47278;49.732;7.690;2023-12-20T12:16:37;8.60;99.90
61412;DHT22;47278;49.732;7.690;2023-12-20T12:19:03;8.40;99.90
61412;DHT22;47278;49.732;7.690;2023-12-20T12:21:29;8.40;99.90
61412;DHT22;47278;49.732;7.690;2023-12-20T12:24:06;8.20;99.90
61412;DHT22;47278;49.732;7.690;2023-12-20T12:26:31;8.00;99.90
61412;DHT22;47278;49.732;7.690;2023-12-20T12:28:57;7.80;99.90
61412;DHT22;47278;49.732;7.690;2023-12-20T12:31:23;7.80;99.90
61412;DHT22;47278;49.732;7.690;2023-12-20T12:33:50;7.80;99.90
61412;DHT22;47278;49.732;7.690;2023-12-20T12:36:17;7.70;99.90
61412;DHT22;47278;49.732;7.690;2023-12-20T12:38:43;7.70;99.90
61412;DHT22;47278;49.732;7.690;2023-12-20T12:41:10;7.70;99.90
61412;DHT22;47278;49.732;7.690;2023-12-20T12:43:39;7.60;99.90
61412;DHT22;47278;49.732;7.690;2023-12-20T12:46:05;7.50;99.90
61412;DHT22;47278;49.732;7.690;2023-12-20T12:48:31;7.60;99.90
61412;DHT22;47278;49.732;7.690;2023-12-20T12:50:57;7.70;99.90
61412;DHT22;47278;49.732;7.690;2023-12-20T12:53:25;7.80;99.90
61412;DHT22;47278;49.732;7.690;2023-12-20T12:55:51;7.90;99.90
61412;DHT22;47278;49.732;7.690;2023-12-20T12:58:16;7.80;99.90
61412;DHT22;47278;49.732;7.690;2023-12-20T13:00:43;7.80;99.90
61412;DHT22;47278;49.732;7.690;2023-12-20T13:03:09;7.60;99.90
61412;DHT22;47278;49.732;7.690;2023-12-20T13:05:35;7.60;99.90
61412;DHT22;47278;49.732;7.690;2023-12-20T13:08:01;7.80;99.90
61412;DHT22;47278;49.732;7.690;2023-12-20T13:10:27;7.80;99.90
61412;DHT22;47278;49.732;7.690;2023-12-20T13:12:53;7.70;99.90
61412;DHT22;47278;49.732;7.690;2023-12-20T13:15:19;7.60;99.90
61412;DHT22;47278;49.732;7.690;2023-12-20T13:17:45;7.90;99.90
61412;DHT22;47278;49.732;7.690;2023-12-20T13:20:11;8.00;99.90
61412;DHT22;47278;49.732;7.690;2023-12-20T13:22:37;8.10;99.90
61412;DHT22;47278;49.732;7.690;2023-12-20T13:25:03;8.10;99.90
61412;DHT22;47278;49.732;7.690;2023-12-20T13:27:29;8.10;99.90
61412;DHT22;47278;49.732;7.690;2023-12-20T13:29:55;8.00;99.90
61412;DHT22;47278;49.732;7.690;2023-12-20T13:32:21;8.30;99.90
61412;DHT22;47278;49.732;7.690;2023-12-20T13:34:47;8.30;99.90
61412;DHT22;47278;49.732;7.690;2023-12-20T13:37:13;8.20;99.90
61412;DHT22;47278;49.732;7.690;2023-12-20T13:39:39;7.90;99.90
61412;DHT22;47278;49.732;7.690;2023-12-20T13:42:06;7.90;99.90
61412;DHT22;47278;49.732;7.690;2023-12-20T13:44:33;7.70;99.90
61412;DHT22;47278;49.732;7.690;2023-12-20T13:46:59;7.60;99.90
61412;DHT22;47278;49.732;7.690;2023-12-20T13:49:26;7.50;99.90
61412;DHT22;47278;49.732;7.690;2023-12-20T13:51:53;7.40;99.90
61412;DHT22;47278;49.732;7.690;2023-12-20T13:54:20;7.50;99.90
61412;DHT22;47278;49.732;7.690;2023-12-20T13:56:47;7.40;99.90
61412;DHT22;47278;49.732;7.690;2023-12-20T13:59:13;7.60;99.90
61412;DHT22;47278;49.732;7.690;2023-12-20T14:01:40;7.70;99.90
61412;DHT22;47278;49.732;7.690;2023-12-20T14:04:07;7.70;99.90
61412;DHT22;47278;49.732;7.690;2023-12-20T14:06:33;7.60;99.90
61412;DHT22;47278;49.732;7.690;2023-12-20T14:08:59;7.60;99.90
61412;DHT22;47278;49.732;7.690;2023-12-20T14:11:28;7.40;99.90
61412;DHT22;47278;49.732;7.690;2023-12-20T14:13:55;7.40;99.90
61412;DHT22;47278;49.732;7.690;2023-12-20T14:16:26;7.30;99.90
61412;DHT22;47278;49.732;7.690;2023-12-20T14:18:51;7.30;99.90
61412;DHT22;47278;49.732;7.690;2023-12-20T14:21:22;7.30;99.90
61412;DHT22;47278;49.732;7.690;2023-12-20T14:23:49;7.20;99.90
61412;DHT22;47278;49.732;7.690;2023-12-20T14:26:15;7.20;99.90
61412;DHT22;47278;49.732;7.690;2023-12-20T14:28:41;7.20;99.90
61412;DHT22;47278;49.732;7.690;2023-12-20T14:31:07;7.10;99.90
61412;DHT22;47278;49.732;7.690;2023-12-20T14:33:33;7.10;99.90
61412;DHT22;47278;49.732;7.690;2023-12-20T14:35:59;7.10;99.90
61412;DHT22;47278;49.732;7.690;2023-12-20T14:38:25;7.10;99.90
61412;DHT22;47278;49.732;7.690;2023-12-20T14:40:52;7.20;99.90
61412;DHT22;47278;49.732;7.690;2023-12-20T14:43:17;7.20;99.90
61412;DHT22;47278;49.732;7.690;2023-12-20T14:45:43;7.20;99.90
61412;DHT22;47278;49.732;7.690;2023-12-20T14:48:09;7.30;99.90
61412;DHT22;47278;49.732;7.690;2023-12-20T14:50:35;7.20;99.90
61412;DHT22;47278;49.732;7.690;2023-12-20T14:53:02;7.20;99.90
61412;DHT22;47278;49.732;7.690;2023-12-20T14:55:29;7.20;99.90
61412;DHT22;47278;49.732;7.690;2023-12-20T14:57:55;7.20;99.90
61412;DHT22;47278;49.732;7.690;2023-12-20T15:00:21;7.20;99.90
61412;DHT22;47278;49.732;7.690;2023-12-20T15:02:47;7.20;99.90
61412;DHT22;47278;49.732;7.690;2023-12-20T15:05:12;7.20;99.90
61412;DHT22;47278;49.732;7.690;2023-12-20T15:07:40;7.10;99.90
61412;DHT22;47278;49.732;7.690;2023-12-20T15:10:07;7.20;99.90
61412;DHT22;47278;49.732;7.690;2023-12-20T15:12:33;7.20;99.90
61412;DHT22;47278;49.732;7.690;2023-12-20T15:14:59;7.10;99.90
61412;DHT22;47278;49.732;7.690;2023-12-20T15:17:25;7.10;99.90
61412;DHT22;47278;49.732;7.690;2023-12-20T15:19:52;7.20;99.90
61412;DHT22;47278;49.732;7.690;2023-12-20T15:22:17;7.20;99.90
61412;DHT22;47278;49.732;7.690;2023-12-20T15:24:43;7.10;99.90
61412;DHT22;47278;49.732;7.690;2023-12-20T15:27:11;7.10;99.90
61412;DHT22;47278;49.732;7.690;2023-12-20T15:29:37;7.20;99.90
61412;DHT22;47278;49.732;7.690;2023-12-20T15:32:04;7.10;99.90
61412;DHT22;47278;49.732;7.690;2023-12-20T15:34:30;7.10;99.90
61412;DHT22;47278;49.732;7.690;2023-12-20T15:36:57;7.20;99.90
61412;DHT22;47278;49.732;7.690;2023-12-20T15:39:24;7.20;99.90
61412;DHT22;47278;49.732;7.690;2023-12-20T15:41:49;7.10;99.90
61412;DHT22;47278;49.732;7.690;2023-12-20T15:44:15;7.10;99.90